Oregon, Wisconsin
Current Conditions -  °F | °C
As of 6:53 AM on Friday 19 Dec 2014 (Local Time) from KMSN Reporting Station
Overcast Overcast  
Wind Chill: 19°   Ceiling: 1300
Heat Index: 25°   Visibility: 10mi
Dew Point: 20°   Wind: 5mph
Humidity: 81%   Direction: NA
Pressure: 30.29"   Gusts: NA
Location:  42.93°N, 89.38°W
Report Text: KMSN 191253Z VRB04KT 10SM OVC013 M04/M07 A3029 RMK AO2 SLP270 T10391067
Loading
Personal Weather Stations






























Interactive Weather Map New forecast layout! Learn more

10-Day Weather Forecast

Advertisements
Track Severe Weather on mobile